Wetterdaten: Woche 30.05.16 - 05.06.16 (KW22)
Datum Zeit Temp. A. Feuchte A. Luftdruck Regen Wind Richtung Taupunkt Windchill Windben
30.05.2016 00:00 21,1 C 57 % 1003,0 hPa 0,0 l/m 1,6 km/h N 12,3 C 21,1 C 7,6 km/h
30.05.2016 01:00 20,8 C 57 % 1002,8 hPa 0,0 l/m 3,4 km/h N 12,0 C 20,8 C 10,5 km/h
30.05.2016 02:00 20,0 C 61 % 1002,6 hPa 0,0 l/m 2,2 km/h N 12,1 C 20,0 C 8,4 km/h
30.05.2016 03:00 18,1 C 67 % 1003,0 hPa 0,0 l/m 0,1 km/h N 11,8 C 18,1 C 2,0 km/h
30.05.2016 04:00 16,3 C 74 % 1003,5 hPa 0,0 l/m 0,0 km/h N 11,6 C 16,3 C 1,6 km/h
30.05.2016 05:00 15,2 C 77 % 1004,0 hPa 0,0 l/m 0,0 km/h N 11,2 C 15,2 C 0,0 km/h
30.05.2016 06:00 15,3 C 81 % 1004,3 hPa 0,0 l/m 0,2 km/h N 12,0 C 15,3 C 3,6 km/h
30.05.2016 07:00 17,2 C 81 % 1004,5 hPa 0,0 l/m 0,1 km/h N 13,9 C 17,2 C 2,8 km/h
30.05.2016 08:00 20,0 C 75 % 1005,0 hPa 0,0 l/m 0,4 km/h N 15,5 C 20,0 C 6,0 km/h
30.05.2016 09:00 21,1 C 65 % 1005,4 hPa 0,0 l/m 4,7 km/h N 14,2 C 21,1 C 15,7 km/h
30.05.2016 10:00 21,0 C 64 % 1005,7 hPa 0,0 l/m 5,6 km/h N 13,9 C 20,9 C 16,5 km/h
30.05.2016 11:00 21,3 C 63 % 1006,3 hPa 0,0 l/m 2,3 km/h N 14,0 C 21,3 C 10,9 km/h
30.05.2016 12:00 21,3 C 67 % 1006,5 hPa 0,0 l/m 2,0 km/h N 14,8 C 21,3 C 9,6 km/h
30.05.2016 13:00 21,9 C 62 % 1006,6 hPa 0,0 l/m 1,8 km/h N 14,3 C 21,9 C 9,6 km/h
30.05.2016 14:00 21,4 C 68 % 1006,9 hPa 0,5 l/m 0,3 km/h N 15,1 C 21,4 C 5,6 km/h
30.05.2016 15:00 19,5 C 78 % 1006,9 hPa 1,0 l/m 0,5 km/h N 15,5 C 19,5 C 4,4 km/h
30.05.2016 16:00 19,7 C 81 % 1006,8 hPa 0,0 l/m 0,0 km/h N 16,3 C 19,7 C 1,2 km/h
30.05.2016 17:00 20,2 C 77 % 1006,6 hPa 0,0 l/m 0,2 km/h N 16,0 C 20,2 C 2,8 km/h
30.05.2016 18:00 20,3 C 75 % 1006,1 hPa 0,0 l/m 0,1 km/h N 15,6 C 20,3 C 2,0 km/h
30.05.2016 19:00 19,5 C 74 % 1006,1 hPa 0,0 l/m 0,4 km/h N 14,6 C 19,5 C 3,6 km/h
30.05.2016 20:00 18,5 C 78 % 1006,1 hPa 0,0 l/m 0,3 km/h N 14,5 C 18,5 C 2,4 km/h
30.05.2016 21:00 17,8 C 80 % 1006,4 hPa 0,0 l/m 0,0 km/h N 14,2 C 17,8 C 0,0 km/h
30.05.2016 22:00 17,0 C 81 % 1006,6 hPa 0,0 l/m 0,1 km/h N 13,7 C 17,0 C 1,2 km/h
30.05.2016 23:00 16,8 C 81 % 1006,8 hPa 0,0 l/m 0,2 km/h N 13,5 C 16,8 C 3,6 km/h
31.05.2016 00:00 16,5 C 82 % 1006,8 hPa 0,0 l/m 0,0 km/h N 13,3 C 16,5 C 0,0 km/h
31.05.2016 01:00 15,9 C 82 % 1006,9 hPa 0,0 l/m 0,0 km/h N 12,8 C 15,9 C 1,2 km/h
31.05.2016 02:00 15,5 C 82 % 1006,9 hPa 0,0 l/m 0,0 km/h N 12,4 C 15,5 C 0,8 km/h
31.05.2016 03:00 16,0 C 81 % 1007,1 hPa 0,0 l/m 1,5 km/h N 12,8 C 16,0 C 12,9 km/h
31.05.2016 04:00 16,7 C 77 % 1007,1 hPa 0,0 l/m 3,1 km/h N 12,5 C 16,7 C 17,7 km/h
31.05.2016 05:00 16,7 C 76 % 1007,5 hPa 0,0 l/m 2,4 km/h N 12,4 C 16,7 C 11,7 km/h
31.05.2016 06:00 17,0 C 76 % 1007,8 hPa 0,0 l/m 2,2 km/h N 12,7 C 17,0 C 14,5 km/h
31.05.2016 07:00 17,5 C 75 % 1008,2 hPa 0,0 l/m 1,4 km/h N 13,1 C 17,5 C 7,2 km/h
31.05.2016 08:00 18,4 C 73 % 1008,5 hPa 0,0 l/m 3,4 km/h N 13,3 C 18,4 C 14,1 km/h
31.05.2016 09:00 18,7 C 71 % 1008,9 hPa 0,0 l/m 5,0 km/h N 13,4 C 18,7 C 17,3 km/h
31.05.2016 10:00 19,1 C 74 % 1008,9 hPa 0,3 l/m 4,3 km/h N 14,2 C 19,1 C 15,3 km/h
31.05.2016 11:00 21,2 C 66 % 1008,8 hPa 0,0 l/m 6,9 km/h N 14,6 C 20,9 C 18,5 km/h
31.05.2016 12:00 21,7 C 62 % 1009,0 hPa 0,0 l/m 4,8 km/h N 14,0 C 21,7 C 14,9 km/h
31.05.2016 13:00 20,0 C 67 % 1009,7 hPa 0,0 l/m 3,3 km/h N 13,5 C 20,0 C 12,9 km/h
31.05.2016 14:00 18,1 C 77 % 1010,8 hPa 3,9 l/m 0,2 km/h N 14,0 C 18,1 C 3,2 km/h
31.05.2016 15:00 17,4 C 81 % 1010,2 hPa 4,7 l/m 0,1 km/h N 14,1 C 17,4 C 2,0 km/h
31.05.2016 16:00 18,5 C 81 % 1009,7 hPa 0,0 l/m 1,1 km/h N 15,1 C 18,5 C 8,0 km/h
31.05.2016 17:00 18,8 C 76 % 1009,4 hPa 0,0 l/m 2,7 km/h N 14,5 C 18,8 C 12,5 km/h
31.05.2016 18:00 20,3 C 68 % 1009,3 hPa 0,3 l/m 3,3 km/h N 14,2 C 20,3 C 13,3 km/h
31.05.2016 19:00 19,9 C 69 % 1009,5 hPa 0,0 l/m 2,7 km/h N 13,9 C 19,9 C 12,5 km/h
31.05.2016 20:00 18,6 C 70 % 1009,9 hPa 0,0 l/m 1,6 km/h N 13,1 C 18,6 C 8,9 km/h
31.05.2016 21:00 16,8 C 75 % 1010,5 hPa 0,0 l/m 1,7 km/h N 12,2 C 16,8 C 10,8 km/h
31.05.2016 22:00 16,3 C 75 % 1010,7 hPa 0,0 l/m 2,9 km/h N 11,8 C 16,3 C 10,5 km/h
31.05.2016 23:00 16,0 C 77 % 1010,8 hPa 0,0 l/m 0,0 km/h N 11,9 C 16,0 C 0,0 km/h
01.06.2016 00:00 15,2 C 79 % 1011,0 hPa 0,0 l/m 0,0 km/h N 11,5 C 15,2 C 0,0 km/h
01.06.2016 01:00 14,7 C 81 % 1011,0 hPa 0,0 l/m 0,0 km/h N 11,4 C 14,7 C 1,2 km/h
01.06.2016 02:00 14,2 C 81 % 1011,0 hPa 0,0 l/m 0,0 km/h N 11,0 C 14,2 C 0,0 km/h
01.06.2016 03:00 14,3 C 82 % 1010,7 hPa 0,5 l/m 0,0 km/h N 11,2 C 14,3 C 0,4 km/h
01.06.2016 04:00 13,9 C 82 % 1010,3 hPa 0,0 l/m 0,0 km/h N 10,9 C 13,9 C 1,6 km/h
01.06.2016 05:00 13,3 C 82 % 1010,6 hPa 0,0 l/m 0,0 km/h N 10,3 C 13,3 C 0,4 km/h
01.06.2016 06:00 14,0 C 82 % 1011,0 hPa 0,0 l/m 0,0 km/h N 11,0 C 14,0 C 0,4 km/h
01.06.2016 07:00 15,5 C 81 % 1011,1 hPa 0,0 l/m 0,0 km/h N 12,3 C 15,5 C 0,0 km/h
01.06.2016 08:00 16,5 C 82 % 1011,4 hPa 0,0 l/m 0,0 km/h N 13,4 C 16,5 C 0,4 km/h
01.06.2016 09:00 17,8 C 79 % 1011,4 hPa 0,0 l/m 0,5 km/h N 14,2 C 17,8 C 4,8 km/h
01.06.2016 10:00 20,0 C 74 % 1011,2 hPa 0,0 l/m 0,6 km/h N 15,3 C 20,0 C 6,0 km/h
01.06.2016 11:00 21,0 C 68 % 1011,0 hPa 0,3 l/m 1,5 km/h N 14,9 C 21,0 C 7,6 km/h
01.06.2016 12:00 22,7 C 62 % 1010,6 hPa 0,0 l/m 1,0 km/h N 15,0 C 22,7 C 7,6 km/h
01.06.2016 13:00 22,0 C 65 % 1010,6 hPa 0,3 l/m 1,0 km/h N 15,1 C 22,0 C 9,3 km/h
01.06.2016 14:00 22,8 C 59 % 1010,3 hPa 0,0 l/m 2,0 km/h N 14,3 C 22,8 C 10,9 km/h
01.06.2016 15:00 18,7 C 67 % 1010,8 hPa 9,1 l/m 2,7 km/h N 12,3 C 18,7 C 10,9 km/h
01.06.2016 16:00 15,9 C 81 % 1010,4 hPa 0,0 l/m 0,9 km/h N 12,6 C 15,9 C 7,2 km/h
01.06.2016 17:00 16,2 C 82 % 1010,7 hPa 0,0 l/m 1,0 km/h N 13,1 C 16,2 C 8,4 km/h
01.06.2016 18:00 17,9 C 78 % 1010,7 hPa 0,0 l/m 0,6 km/h N 14,1 C 17,9 C 5,2 km/h
01.06.2016 19:00 19,6 C 75 % 1010,4 hPa 0,3 l/m 0,4 km/h N 15,1 C 19,6 C 4,0 km/h
01.06.2016 20:00 19,4 C 72 % 1010,2 hPa 0,0 l/m 0,1 km/h N 14,2 C 19,4 C 2,4 km/h
01.06.2016 21:00 17,2 C 77 % 1010,4 hPa 0,0 l/m 0,0 km/h N 13,1 C 17,2 C 0,0 km/h
01.06.2016 22:00 15,6 C 80 % 1010,7 hPa 0,0 l/m 0,0 km/h N 12,1 C 15,6 C 0,8 km/h
01.06.2016 23:00 14,8 C 82 % 1010,5 hPa 0,0 l/m 0,0 km/h N 11,7 C 14,8 C 0,8 km/h
02.06.2016 00:00 14,9 C 82 % 1010,8 hPa 0,0 l/m 0,2 km/h N 11,8 C 14,9 C 2,4 km/h
02.06.2016 01:00 15,3 C 82 % 1010,6 hPa 0,0 l/m 0,0 km/h N 12,2 C 15,3 C 1,6 km/h
02.06.2016 02:00 15,0 C 82 % 1010,2 hPa 0,0 l/m 0,0 km/h N 12,0 C 15,0 C 0,0 km/h
02.06.2016 03:00 14,3 C 82 % 1010,1 hPa 0,0 l/m 0,0 km/h N 11,2 C 14,3 C 0,0 km/h
02.06.2016 04:00 13,3 C 82 % 1010,0 hPa 0,0 l/m 0,0 km/h N 10,3 C 13,3 C 0,8 km/h
02.06.2016 05:00 13,1 C 82 % 1010,0 hPa 0,0 l/m 0,0 km/h N 10,1 C 13,1 C 1,2 km/h
02.06.2016 06:00 13,6 C 82 % 1010,1 hPa 0,0 l/m 0,0 km/h N 10,6 C 13,6 C 1,2 km/h
02.06.2016 07:00 14,4 C 82 % 1010,2 hPa 0,0 l/m 0,0 km/h N 11,4 C 14,4 C 0,4 km/h
02.06.2016 08:00 16,2 C 82 % 1010,0 hPa 0,0 l/m 0,1 km/h N 13,1 C 16,2 C 2,0 km/h
02.06.2016 09:00 18,5 C 73 % 1010,0 hPa 0,0 l/m 1,5 km/h N 13,5 C 18,5 C 7,2 km/h
02.06.2016 10:00 19,5 C 70 % 1009,9 hPa 0,0 l/m 1,8 km/h N 13,8 C 19,5 C 9,3 km/h
02.06.2016 11:00 19,7 C 69 % 1009,7 hPa 0,0 l/m 2,0 km/h N 13,8 C 19,7 C 11,3 km/h
02.06.2016 12:00 20,7 C 64 % 1009,3 hPa 0,0 l/m 1,2 km/h N 13,6 C 20,7 C 7,2 km/h
02.06.2016 13:00 20,1 C 71 % 1009,3 hPa 0,0 l/m 0,6 km/h N 14,6 C 20,1 C 6,0 km/h
02.06.2016 14:00 18,8 C 78 % 1009,4 hPa 2,1 l/m 1,0 km/h N 15,0 C 18,8 C 4,4 km/h
02.06.2016 15:00 19,3 C 77 % 1009,2 hPa 0,0 l/m 0,3 km/h N 15,2 C 19,3 C 2,8 km/h
02.06.2016 16:00 20,8 C 70 % 1008,7 hPa 0,0 l/m 0,2 km/h N 15,1 C 20,8 C 3,2 km/h
02.06.2016 17:00 21,6 C 64 % 1008,3 hPa 0,0 l/m 0,1 km/h N 14,5 C 21,6 C 2,4 km/h
02.06.2016 18:00 22,0 C 63 % 1008,0 hPa 0,0 l/m 0,0 km/h N 14,6 C 22,0 C 0,8 km/h
02.06.2016 19:00 21,2 C 67 % 1008,3 hPa 0,0 l/m 0,1 km/h N 14,7 C 21,2 C 2,0 km/h
02.06.2016 20:00 19,0 C 72 % 1008,5 hPa 0,0 l/m 1,3 km/h N 13,9 C 19,0 C 9,3 km/h
02.06.2016 21:00 17,4 C 79 % 1009,4 hPa 3,6 l/m 0,6 km/h N 13,6 C 17,4 C 4,4 km/h
02.06.2016 22:00 16,3 C 81 % 1009,2 hPa 1,3 l/m 0,0 km/h N 13,0 C 16,3 C 0,0 km/h
02.06.2016 23:00 15,5 C 82 % 1008,9 hPa 0,0 l/m 0,0 km/h N 12,4 C 15,5 C 0,4 km/h
03.06.2016 00:00 14,8 C 82 % 1009,0 hPa 0,0 l/m 0,0 km/h N 11,8 C 14,8 C 0,8 km/h
03.06.2016 01:00 14,6 C 82 % 1009,0 hPa 0,0 l/m 0,0 km/h N 11,6 C 14,6 C 0,0 km/h
03.06.2016 02:00 14,6 C 82 % 1008,9 hPa 0,3 l/m 0,0 km/h N 11,6 C 14,6 C 0,0 km/h
03.06.2016 03:00 15,0 C 81 % 1008,8 hPa 0,0 l/m 0,1 km/h N 11,8 C 15,0 C 2,0 km/h
03.06.2016 04:00 15,2 C 81 % 1008,7 hPa 0,0 l/m 0,1 km/h N 12,0 C 15,2 C 1,2 km/h
03.06.2016 05:00 15,0 C 81 % 1008,8 hPa 0,0 l/m 0,0 km/h N 11,8 C 15,0 C 0,0 km/h
03.06.2016 06:00 14,9 C 81 % 1008,9 hPa 0,0 l/m 0,0 km/h N 11,7 C 14,9 C 0,0 km/h
03.06.2016 07:00 15,5 C 81 % 1009,1 hPa 0,0 l/m 0,2 km/h N 12,3 C 15,5 C 3,6 km/h
03.06.2016 08:00 16,4 C 81 % 1009,3 hPa 0,0 l/m 0,4 km/h N 13,2 C 16,4 C 4,8 km/h
03.06.2016 09:00 18,7 C 79 % 1009,1 hPa 0,0 l/m 3,2 km/h N 14,9 C 18,7 C 16,1 km/h
03.06.2016 10:00 20,0 C 72 % 1009,0 hPa 0,0 l/m 4,8 km/h N 14,8 C 20,0 C 16,9 km/h
03.06.2016 11:00 21,0 C 70 % 1009,0 hPa 0,0 l/m 4,6 km/h N 15,2 C 21,0 C 15,7 km/h
03.06.2016 12:00 20,4 C 68 % 1009,0 hPa 0,0 l/m 5,0 km/h N 14,2 C 20,4 C 14,9 km/h
03.06.2016 13:00 21,8 C 66 % 1008,8 hPa 0,0 l/m 4,1 km/h N 15,1 C 21,8 C 14,5 km/h
03.06.2016 14:00 21,8 C 65 % 1008,5 hPa 0,0 l/m 0,6 km/h N 15,0 C 21,8 C 6,0 km/h
03.06.2016 15:00 22,3 C 67 % 1008,3 hPa 0,0 l/m 0,7 km/h N 15,8 C 22,3 C 5,2 km/h
03.06.2016 16:00 22,6 C 64 % 1008,0 hPa 0,0 l/m 0,4 km/h N 15,4 C 22,6 C 3,6 km/h
03.06.2016 17:00 22,2 C 64 % 1008,2 hPa 0,0 l/m 0,4 km/h N 15,1 C 22,2 C 4,0 km/h
03.06.2016 18:00 21,3 C 73 % 1008,5 hPa 0,0 l/m 0,6 km/h N 16,3 C 21,3 C 5,6 km/h
03.06.2016 19:00 19,8 C 79 % 1008,5 hPa 0,0 l/m 0,0 km/h N 15,9 C 19,8 C 0,4 km/h
03.06.2016 20:00 19,4 C 80 % 1008,5 hPa 0,0 l/m 0,0 km/h N 15,9 C 19,4 C 0,0 km/h
03.06.2016 21:00 18,8 C 80 % 1008,8 hPa 0,0 l/m 0,1 km/h N 15,2 C 18,8 C 1,6 km/h
03.06.2016 22:00 18,3 C 81 % 1009,2 hPa 0,0 l/m 0,1 km/h N 14,9 C 18,3 C 2,8 km/h
03.06.2016 23:00 17,9 C 81 % 1009,3 hPa 0,0 l/m 0,1 km/h N 14,6 C 17,9 C 2,4 km/h
04.06.2016 00:00 17,3 C 81 % 1009,3 hPa 0,0 l/m 0,0 km/h N 14,1 C 17,3 C 0,0 km/h
04.06.2016 01:00 16,2 C 82 % 1009,4 hPa 0,0 l/m 0,0 km/h N 13,1 C 16,2 C 0,4 km/h
04.06.2016 02:00 15,2 C 82 % 1009,4 hPa 0,0 l/m 0,0 km/h N 12,1 C 15,2 C 1,6 km/h
04.06.2016 03:00 14,5 C 82 % 1009,3 hPa 0,0 l/m 0,0 km/h N 11,5 C 14,5 C 0,0 km/h
04.06.2016 04:00 14,1 C 82 % 1009,7 hPa 0,0 l/m 0,1 km/h N 11,1 C 14,1 C 2,8 km/h
04.06.2016 05:00 13,9 C 82 % 1010,0 hPa 0,0 l/m 0,0 km/h N 10,8 C 13,9 C 2,4 km/h
04.06.2016 06:00 14,3 C 82 % 1010,4 hPa 0,0 l/m 0,0 km/h N 11,2 C 14,3 C 0,8 km/h
04.06.2016 07:00 16,0 C 81 % 1010,4 hPa 0,0 l/m 0,0 km/h N 12,7 C 16,0 C 0,8 km/h
04.06.2016 08:00 18,8 C 81 % 1010,3 hPa 0,0 l/m 2,2 km/h N 15,3 C 18,8 C 8,9 km/h
04.06.2016 09:00 20,8 C 75 % 1010,5 hPa 0,0 l/m 2,2 km/h N 16,2 C 20,8 C 10,1 km/h
04.06.2016 10:00 21,7 C 72 % 1010,6 hPa 0,0 l/m 3,4 km/h N 16,3 C 21,7 C 12,9 km/h
04.06.2016 11:00 22,4 C 68 % 1010,5 hPa 0,0 l/m 3,8 km/h N 16,1 C 22,4 C 13,3 km/h
04.06.2016 12:00 23,0 C 64 % 1010,3 hPa 0,0 l/m 2,7 km/h N 15,9 C 23,0 C 11,3 km/h
04.06.2016 13:00 24,0 C 59 % 1010,2 hPa 0,0 l/m 2,0 km/h N 15,3 C 24,0 C 10,1 km/h
04.06.2016 14:00 24,6 C 56 % 1009,9 hPa 0,0 l/m 1,8 km/h N 15,3 C 24,6 C 9,3 km/h
04.06.2016 15:00 21,9 C 70 % 1010,2 hPa 12,2 l/m 2,1 km/h N 16,0 C 21,9 C 10,9 km/h
04.06.2016 16:00 19,1 C 81 % 1009,7 hPa 0,8 l/m 0,0 km/h N 15,7 C 19,1 C 0,8 km/h
04.06.2016 17:00 20,7 C 81 % 1009,8 hPa 0,0 l/m 0,5 km/h N 17,3 C 20,7 C 2,4 km/h
04.06.2016 18:00 20,5 C 74 % 1010,0 hPa 0,0 l/m 2,8 km/h N 15,8 C 20,5 C 10,1 km/h
04.06.2016 19:00 20,7 C 71 % 1010,1 hPa 0,0 l/m 0,4 km/h N 15,1 C 20,7 C 4,0 km/h
04.06.2016 20:00 20,7 C 71 % 1010,2 hPa 0,0 l/m 0,0 km/h N 15,2 C 20,7 C 0,8 km/h
04.06.2016 21:00 18,8 C 78 % 1011,0 hPa 0,0 l/m 0,0 km/h N 14,8 C 18,8 C 0,0 km/h
04.06.2016 22:00 17,2 C 81 % 1011,6 hPa 0,0 l/m 0,0 km/h N 13,8 C 17,2 C 0,8 km/h
04.06.2016 23:00 16,8 C 81 % 1011,7 hPa 0,0 l/m 0,0 km/h N 13,5 C 16,8 C 1,6 km/h
05.06.2016 00:00 16,6 C 81 % 1011,7 hPa 0,0 l/m 0,1 km/h N 13,4 C 16,6 C 1,6 km/h
05.06.2016 01:00 16,0 C 82 % 1011,4 hPa 0,0 l/m 0,0 km/h N 12,8 C 16,0 C 0,8 km/h
05.06.2016 02:00 15,4 C 82 % 1011,3 hPa 0,0 l/m 0,0 km/h N 12,4 C 15,4 C 0,0 km/h
05.06.2016 03:00 15,3 C 82 % 1011,5 hPa 0,0 l/m 0,0 km/h N 12,2 C 15,3 C 0,0 km/h
05.06.2016 04:00 15,3 C 82 % 1011,6 hPa 0,0 l/m 0,0 km/h N 12,3 C 15,3 C 1,2 km/h
05.06.2016 05:00 15,8 C 82 % 1011,9 hPa 0,0 l/m 0,0 km/h N 12,8 C 15,8 C 0,8 km/h
05.06.2016 06:00 16,9 C 82 % 1012,3 hPa 0,0 l/m 2,9 km/h N 13,7 C 16,9 C 10,1 km/h
05.06.2016 07:00 18,2 C 78 % 1012,6 hPa 0,0 l/m 5,5 km/h N 14,3 C 18,2 C 16,5 km/h
05.06.2016 08:00 18,5 C 77 % 1012,9 hPa 0,0 l/m 3,2 km/h N 14,3 C 18,5 C 12,9 km/h
05.06.2016 09:00 18,4 C 78 % 1013,3 hPa 0,0 l/m 3,2 km/h N 14,4 C 18,4 C 16,9 km/h
05.06.2016 10:00 19,3 C 77 % 1013,8 hPa 0,0 l/m 4,0 km/h N 15,2 C 19,3 C 17,7 km/h
05.06.2016 11:00 20,3 C 75 % 1014,0 hPa 0,0 l/m 5,6 km/h N 15,6 C 20,3 C 16,1 km/h
05.06.2016 12:00 20,5 C 71 % 1014,2 hPa 0,0 l/m 7,2 km/h N 14,9 C 20,2 C 19,3 km/h
05.06.2016 13:00 21,6 C 64 % 1013,7 hPa 0,0 l/m 8,0 km/h N 14,5 C 21,0 C 20,9 km/h
05.06.2016 14:00 23,0 C 62 % 1013,2 hPa 0,0 l/m 8,0 km/h N 15,1 C 22,4 C 20,9 km/h
05.06.2016 15:00 23,5 C 61 % 1013,1 hPa 0,0 l/m 7,2 km/h N 15,5 C 23,2 C 23,4 km/h
05.06.2016 16:00 23,5 C 61 % 1012,7 hPa 0,0 l/m 7,2 km/h N 15,4 C 23,2 C 20,9 km/h
05.06.2016 17:00 23,3 C 60 % 1012,7 hPa 0,0 l/m 5,6 km/h N 15,1 C 23,3 C 19,3 km/h
05.06.2016 18:00 23,3 C 59 % 1013,7 hPa 1,3 l/m 4,8 km/h N 14,9 C 23,3 C 19,3 km/h
05.06.2016 19:00 18,3 C 77 % 1014,0 hPa 3,6 l/m 0,0 km/h N 14,2 C 18,3 C 6,4 km/h
05.06.2016 20:00 16,8 C 82 % 1014,2 hPa 0,0 l/m 1,6 km/h N 13,6 C 16,8 C 12,1 km/h
05.06.2016 21:00 16,3 C 82 % 1014,6 hPa 0,0 l/m 3,2 km/h N 13,1 C 16,3 C 13,7 km/h
05.06.2016 22:00 15,8 C 82 % 1015,2 hPa 0,0 l/m 0,0 km/h N 12,7 C 15,8 C 7,3 km/h
05.06.2016 23:00 15,8 C 82 % 1015,7 hPa 0,0 l/m 0,0 km/h N 12,7 C 15,8 C 4,0 km/h
Min-Datum _ 02.06.16 04.06.16 30.05.16 - 30.05.16 - 02.06.16 02.06.16 30.05.16
_ Min-Zeit 05:15 14:00 02:00 - 03:00 - 05:00 05:00 05:00
Minimum _ 13,0 C 54 % 1002,4 hPa - 0,0 km/h - 10,0 C 13,0 C 0,0 km/h
Max-Datum _ 04.06.16 31.05.16 05.06.16 04.06.16 31.05.16 - 04.06.16 04.06.16 05.06.16
_ Max-Zeit 14:00 00:15 23:30 15:45 11:15 - 15:00 14:00 15:30
Maximum _ 25,0 C 82 % 1015,8 hPa 12,2 l/m 8,6 km/h
N
- 18,0 C 24,9 C 29,0 km/h
N
Durchschnitt _ 18,3 C 75 % 1009,5 hPa #46,3 l/m 1,4 km/h N 13,6 C 18,3 C 6,3 km/h